Time;durP1;ratioP1;P1;durP2;ratioP2;P2;SDS_P1;SDS_P2;PMS_P1;PMS_P2;Temp;Humidity;BMP_temperature;BMP_pressure;BME280_temperature;BME280_humidity;BME280_pressure;Samples;Min_cycle;Max_cycle;Signal;HPM_P1;HPM_P2
2021/08/30 00:01:09;;;;;;;10.00;8.20;;;;;;;12.12;86.19;100128.60;95270;1180;87096;-64
2021/08/30 00:03:16;;;;;;;10.40;9.00;;;;;;;12.10;86.16;100127.05;95310;1180;93596;-64
2021/08/30 00:05:24;;;;;;;10.00;8.00;;;;;;;12.07;86.14;100125.59;95298;1180;80651;-65
2021/08/30 00:07:31;;;;;;;9.60;7.90;;;;;;;11.99;86.09;100128.02;95333;1180;82266;-65
2021/08/30 00:09:39;;;;;;;10.20;7.10;;;;;;;11.95;86.11;100129.59;95325;1180;97722;-64
2021/08/30 00:11:46;;;;;;;8.80;7.10;;;;;;;11.94;86.24;100128.55;95290;1180;87482;-64
2021/08/30 00:13:54;;;;;;;8.80;7.90;;;;;;;11.93;86.22;100127.34;95308;1180;95018;-59
2021/08/30 00:16:01;;;;;;;14.80;9.00;;;;;;;11.92;86.18;100126.91;95256;1180;79003;-60
2021/08/30 00:18:09;;;;;;;10.20;8.00;;;;;;;11.96;86.30;100125.69;95329;1180;81546;-59
2021/08/30 00:20:20;;;;;;;8.70;7.80;;;;;;;11.97;86.27;100126.81;95208;1180;97346;-64
2021/08/30 00:22:31;;;;;;;8.50;7.60;;;;;;;11.94;86.35;100126.64;95275;1180;86425;-64
2021/08/30 00:24:38;;;;;;;13.30;8.00;;;;;;;11.92;86.41;100129.50;95320;1180;94511;-57
2021/08/30 00:26:46;;;;;;;8.60;7.70;;;;;;;11.95;86.46;100124.42;95276;1180;79050;-57
2021/08/30 00:28:53;;;;;;;10.50;7.50;;;;;;;11.96;86.48;100125.55;95248;1180;81143;-63
2021/08/30 00:31:01;;;;;;;8.80;7.80;;;;;;;11.95;86.53;100124.19;95312;1180;98077;-64
2021/08/30 00:33:09;;;;;;;8.60;7.60;;;;;;;11.97;86.53;100129.75;95331;1180;87230;-63
2021/08/30 00:35:16;;;;;;;8.50;7.70;;;;;;;11.98;86.58;100127.76;95250;1180;92706;-64
2021/08/30 00:37:24;;;;;;;10.10;8.50;;;;;;;11.99;86.66;100130.27;95294;1180;79599;-63
2021/08/30 00:39:32;;;;;;;11.60;9.00;;;;;;;12.01;86.63;100129.20;95288;1180;82224;-63
2021/08/30 00:41:39;;;;;;;9.80;8.80;;;;;;;12.05;86.60;100125.37;95299;1180;99590;-64
2021/08/30 00:43:47;;;;;;;9.60;8.50;;;;;;;12.06;86.70;100129.24;95299;1180;88024;-57
2021/08/30 00:45:54;;;;;;;10.10;8.70;;;;;;;12.09;86.87;100129.99;95262;1180;93265;-58
2021/08/30 00:48:02;;;;;;;10.00;8.50;;;;;;;12.14;87.00;100127.80;95234;1180;79460;-58
2021/08/30 00:50:13;;;;;;;15.40;9.10;;;;;;;12.22;87.03;100128.27;95241;1180;82327;-58
2021/08/30 00:52:25;;;;;;;13.60;10.00;;;;;;;12.32;87.10;100130.36;95277;1180;98802;-58
2021/08/30 00:54:32;;;;;;;10.60;9.50;;;;;;;12.39;87.03;100132.75;95279;1180;87940;-58
2021/08/30 00:56:41;;;;;;;11.10;10.00;;;;;;;12.42;87.08;100129.11;95231;1180;92768;-59
2021/08/30 00:58:48;;;;;;;12.10;10.90;;;;;;;12.50;87.17;100129.54;95179;1180;80627;-63
2021/08/30 01:00:57;;;;;;;12.30;9.90;;;;;;;12.61;87.21;100128.92;95240;1180;80968;-63
2021/08/30 01:03:04;;;;;;;12.00;10.80;;;;;;;12.66;87.19;100122.32;95235;1180;98164;-64
2021/08/30 01:05:16;;;;;;;11.50;10.30;;;;;;;12.71;87.09;100122.86;95223;1180;88046;-64
2021/08/30 01:07:36;;;;;;;10.40;9.30;;;;;;;12.74;87.10;100124.02;95290;1180;94565;-64
2021/08/30 01:09:52;;;;;;;11.20;10.10;;;;;;;12.82;87.02;100120.55;95289;1180;80089;-63
2021/08/30 01:12:08;;;;;;;11.40;10.00;;;;;;;12.88;87.06;100117.96;95331;1180;81818;-65
2021/08/30 01:14:20;;;;;;;11.40;10.30;;;;;;;12.94;87.03;100116.12;95327;1180;98566;-58
2021/08/30 01:16:32;;;;;;;11.70;10.50;;;;;;;12.96;87.03;100114.99;95321;1180;87110;-57
2021/08/30 01:18:41;;;;;;;11.30;9.60;;;;;;;12.97;87.02;100117.73;95302;1180;92978;-59
2021/08/30 01:21:08;;;;;;;12.50;10.30;;;;;;;12.99;86.94;100109.93;95300;1180;80349;-58
2021/08/30 01:23:19;;;;;;;10.90;9.80;;;;;;;13.02;86.75;100115.05;95355;1180;82460;-58
2021/08/30 01:25:31;;;;;;;10.70;9.60;;;;;;;13.02;86.71;100110.38;95248;1180;98696;-60
2021/08/30 01:27:40;;;;;;;10.20;8.90;;;;;;;13.01;86.69;100105.46;95344;1180;86703;-58
2021/08/30 01:30:04;;;;;;;10.00;9.00;;;;;;;13.01;86.68;100095.54;95327;1180;92851;-64
2021/08/30 01:32:24;;;;;;;10.60;9.50;;;;;;;13.02;86.64;100092.66;95313;1180;82429;-65
2021/08/30 01:34:33;;;;;;;9.50;8.60;;;;;;;12.95;86.53;100091.42;95295;1180;82067;-64
2021/08/30 01:36:42;;;;;;;10.30;9.30;;;;;;;12.83;86.55;100089.48;95363;1180;98936;-64
2021/08/30 01:38:58;;;;;;;10.30;9.30;;;;;;;12.75;86.48;100092.04;95352;1180;86336;-59
2021/08/30 01:41:06;;;;;;;11.00;9.60;;;;;;;12.68;86.44;100090.13;95238;1180;94216;-58
2021/08/30 01:43:15;;;;;;;10.50;9.20;;;;;;;12.63;86.48;100093.23;95293;1180;79680;-58
2021/08/30 01:45:27;;;;;;;10.40;9.30;;;;;;;12.55;86.46;100099.59;95240;1180;81205;-65
2021/08/30 01:47:35;;;;;;;10.10;8.40;;;;;;;12.52;86.44;100097.82;95243;1180;98548;-63
2021/08/30 01:49:44;;;;;;;11.00;9.10;;;;;;;12.51;86.44;100094.31;95246;1180;87335;-64
2021/08/30 01:51:53;;;;;;;11.30;9.30;;;;;;;12.52;86.53;100095.73;95263;1180;94402;-65
2021/08/30 01:54:01;;;;;;;12.40;11.10;;;;;;;12.53;86.62;100095.14;95313;1180;79548;-57
2021/08/30 01:56:09;;;;;;;10.60;9.40;;;;;;;12.55;86.68;100093.15;95290;1180;81788;-58
2021/08/30 02:00:47;;;;;;;10.20;9.20;;;;;;;12.61;86.72;100095.89;95264;1180;86914;-59
2021/08/30 02:02:55;;;;;;;11.80;9.70;;;;;;;12.62;86.79;100099.48;95306;1180;93149;-59
2021/08/30 02:05:02;;;;;;;12.00;10.80;;;;;;;12.64;86.86;100099.98;95286;1180;78551;-61
2021/08/30 02:07:10;;;;;;;13.20;11.90;;;;;;;12.70;86.94;100096.89;95353;1180;81339;-59
2021/08/30 02:09:19;;;;;;;12.70;11.30;;;;;;;12.78;87.01;100088.38;95305;1180;97211;-63
2021/08/30 02:11:31;;;;;;;16.30;11.20;;;;;;;12.83;87.06;100094.20;95369;1180;88182;-62
2021/08/30 02:13:42;;;;;;;12.20;10.40;;;;;;;12.84;86.96;100086.64;95330;1180;94552;-61
2021/08/30 02:15:50;;;;;;;11.50;10.50;;;;;;;12.81;87.05;100081.82;95347;1180;79832;-65
2021/08/30 02:18:07;;;;;;;11.50;10.40;;;;;;;12.83;87.00;100079.39;95359;1180;81362;-65
2021/08/30 02:20:19;;;;;;;12.60;11.00;;;;;;;12.86;86.91;100075.17;95266;1180;98760;-64
2021/08/30 02:22:34;;;;;;;12.10;10.20;;;;;;;12.91;86.99;100073.74;95311;1180;87307;-66
2021/08/30 02:24:47;;;;;;;12.40;10.70;;;;;;;12.92;86.90;100076.16;95318;1180;91827;-63
2021/08/30 02:27:06;;;;;;;14.20;11.30;;;;;;;12.87;86.93;100076.55;95279;1180;79867;-67
2021/08/30 02:29:18;;;;;;;13.00;11.30;;;;;;;12.94;86.95;100077.16;95352;1180;81486;-64
2021/08/30 02:31:26;;;;;;;14.10;12.70;;;;;;;12.98;87.02;100077.80;95246;1180;99050;-65
2021/08/30 02:33:35;;;;;;;13.10;11.20;;;;;;;12.97;86.94;100075.94;95220;1180;87821;-65
2021/08/30 02:35:47;;;;;;;13.00;11.20;;;;;;;12.90;86.84;100080.55;95283;1180;92852;-59
2021/08/30 02:37:56;;;;;;;12.20;11.00;;;;;;;12.84;86.84;100076.39;95264;1180;78885;-59
2021/08/30 02:40:06;;;;;;;12.00;10.80;;;;;;;12.79;86.78;100075.48;95245;1180;80659;-59
2021/08/30 02:42:14;;;;;;;12.90;11.60;;;;;;;12.73;86.72;100070.48;95286;1180;99022;-59
2021/08/30 02:44:22;;;;;;;12.40;11.10;;;;;;;12.69;86.70;100064.20;95282;1180;87715;-64
2021/08/30 02:46:31;;;;;;;13.30;11.20;;;;;;;12.65;86.63;100063.11;95265;1180;93438;-64
2021/08/30 02:48:41;;;;;;;12.40;11.00;;;;;;;12.60;86.51;100060.92;95266;1180;78413;-61
2021/08/30 02:50:49;;;;;;;12.50;10.70;;;;;;;12.57;86.52;100051.08;95293;1180;81522;-63
2021/08/30 02:52:59;;;;;;;12.40;11.10;;;;;;;12.55;86.50;100044.17;95353;1180;98432;-67
2021/08/30 02:55:09;;;;;;;11.90;10.70;;;;;;;12.53;86.64;100046.38;95322;1180;86763;-62
2021/08/30 02:57:18;;;;;;;12.10;10.90;;;;;;;12.43;86.59;100050.23;95347;1180;93329;-61
2021/08/30 02:59:27;;;;;;;12.10;10.80;;;;;;;12.28;86.74;100051.39;95298;1180;79469;-61
2021/08/30 03:01:35;;;;;;;11.20;10.00;;;;;;;12.22;86.77;100054.39;95338;1180;80810;-58
2021/08/30 03:03:44;;;;;;;12.20;11.20;;;;;;;12.20;86.77;100055.17;95341;1180;98074;-60
2021/08/30 03:05:56;;;;;;;11.90;10.80;;;;;;;12.17;86.87;100055.61;95292;1180;88275;-58
2021/08/30 03:08:04;;;;;;;11.60;10.40;;;;;;;12.09;86.89;100065.22;95316;1180;94878;-58
2021/08/30 03:10:12;;;;;;;12.40;9.80;;;;;;;12.07;86.87;100072.97;95314;1180;81349;-64
2021/08/30 03:12:20;;;;;;;12.50;11.00;;;;;;;12.08;86.86;100070.22;95349;1180;80391;-63
2021/08/30 03:14:29;;;;;;;12.50;11.30;;;;;;;12.10;86.91;100069.23;95298;1180;98740;-59
2021/08/30 03:16:42;;;;;;;13.30;12.00;;;;;;;12.14;86.99;100064.92;95251;1180;87413;-58
2021/08/30 03:18:50;;;;;;;13.60;12.10;;;;;;;12.16;86.94;100067.60;95336;1180;93698;-59
2021/08/30 03:20:59;;;;;;;12.50;11.30;;;;;;;12.08;86.96;100068.97;95274;1180;80101;-59
2021/08/30 03:23:07;;;;;;;13.90;10.70;;;;;;;12.05;86.95;100066.56;95345;1180;79636;-58
2021/08/30 03:25:23;;;;;;;11.90;10.70;;;;;;;12.08;86.96;100060.93;95294;1180;99228;-63
2021/08/30 03:27:32;;;;;;;12.90;11.60;;;;;;;12.07;86.97;100054.55;95351;1180;88197;-59
2021/08/30 03:29:41;;;;;;;12.50;11.30;;;;;;;12.01;87.00;100060.30;95272;1180;95246;-61
2021/08/30 03:31:50;;;;;;;12.40;11.10;;;;;;;11.96;86.91;100060.38;95307;1180;81041;-57
2021/08/30 03:33:58;;;;;;;11.50;10.30;;;;;;;11.91;86.97;100065.08;95325;1180;82138;-61
2021/08/30 03:36:08;;;;;;;11.80;10.70;;;;;;;11.88;86.97;100066.02;95337;1180;98948;-58
2021/08/30 03:38:16;;;;;;;11.60;10.60;;;;;;;11.87;86.99;100066.11;95345;1180;87448;-58
2021/08/30 03:40:25;;;;;;;12.20;10.90;;;;;;;11.87;87.01;100066.50;95302;1180;94443;-59
2021/08/30 03:42:34;;;;;;;13.20;11.20;;;;;;;11.88;87.04;100064.73;95288;1180;79648;-58
2021/08/30 03:44:41;;;;;;;12.60;10.00;;;;;;;11.88;86.97;100067.56;95319;1180;80611;-60
2021/08/30 03:46:52;;;;;;;11.20;10.00;;;;;;;11.87;86.96;100072.02;95288;1180;98499;-57
2021/08/30 03:49:01;;;;;;;11.30;9.90;;;;;;;11.87;86.94;100074.61;95278;1180;87864;-59
2021/08/30 03:51:09;;;;;;;13.40;12.00;;;;;;;11.85;86.92;100075.92;95287;1180;94112;-59
2021/08/30 03:53:20;;;;;;;11.90;10.90;;;;;;;11.86;86.95;100080.19;95260;1180;80691;-59
2021/08/30 03:55:32;;;;;;;11.50;10.10;;;;;;;11.86;86.94;100084.14;95233;1180;81704;-58
2021/08/30 03:57:40;;;;;;;11.30;10.00;;;;;;;11.86;86.89;100086.15;95254;1180;98797;-60
2021/08/30 03:59:55;;;;;;;11.30;10.20;;;;;;;11.85;86.85;100081.92;95273;1180;87561;-65
2021/08/30 04:02:04;;;;;;;11.60;10.40;;;;;;;11.84;86.99;100080.80;95258;1180;94163;-62
2021/08/30 04:04:15;;;;;;;11.90;10.60;;;;;;;11.82;86.95;100081.52;95214;1180;80419;-59
2021/08/30 04:06:24;;;;;;;12.70;10.70;;;;;;;11.82;86.95;100078.63;95237;1180;82256;-58
2021/08/30 04:08:32;;;;;;;11.80;10.60;;;;;;;11.84;86.98;100079.42;95203;1180;98624;-58
2021/08/30 04:10:41;;;;;;;11.10;9.80;;;;;;;11.88;87.11;100076.31;95274;1180;87255;-64
2021/08/30 04:12:49;;;;;;;13.10;10.50;;;;;;;11.90;87.23;100074.58;95228;1180;94472;-64
2021/08/30 04:14:57;;;;;;;13.20;11.10;;;;;;;11.96;87.30;100075.70;95186;1180;80590;-63
2021/08/30 04:17:05;;;;;;;11.70;10.10;;;;;;;12.01;87.30;100073.80;95236;1180;80681;-63
2021/08/30 04:19:13;;;;;;;10.70;9.60;;;;;;;12.06;87.27;100075.72;95225;1180;97978;-58
2021/08/30 04:21:21;;;;;;;11.30;10.20;;;;;;;12.12;87.20;100074.26;95216;1180;88088;-58
2021/08/30 04:23:30;;;;;;;11.70;10.40;;;;;;;12.19;87.23;100078.11;95238;1180;93286;-58
2021/08/30 04:25:40;;;;;;;12.00;10.70;;;;;;;12.27;87.32;100079.61;95234;1180;77332;-63
2021/08/30 04:27:48;;;;;;;13.90;11.80;;;;;;;12.33;87.40;100074.19;95243;1180;81854;-63
2021/08/30 04:29:59;;;;;;;11.90;10.80;;;;;;;12.41;87.39;100074.89;95229;1180;99148;-58
2021/08/30 04:32:10;;;;;;;10.90;9.90;;;;;;;12.51;87.38;100074.55;95298;1180;89051;-58
2021/08/30 04:34:22;;;;;;;11.70;10.60;;;;;;;12.55;87.38;100074.67;95302;1180;94369;-58
2021/08/30 04:36:29;;;;;;;12.20;11.00;;;;;;;12.63;87.35;100073.42;95293;1180;78800;-57
2021/08/30 04:38:46;;;;;;;13.40;12.20;;;;;;;12.67;87.44;100077.55;95331;1180;81396;-58
2021/08/30 04:40:53;;;;;;;12.60;11.30;;;;;;;12.76;87.45;100078.12;95337;1180;97021;-63
2021/08/30 04:43:01;;;;;;;12.00;10.80;;;;;;;12.83;87.35;100078.89;95320;1180;88324;-62
2021/08/30 04:45:11;;;;;;;11.30;10.10;;;;;;;12.94;87.35;100079.28;95274;1180;93470;-59
2021/08/30 04:47:19;;;;;;;13.80;12.40;;;;;;;13.08;87.37;100080.64;95284;1180;78458;-59
2021/08/30 04:49:26;;;;;;;13.20;12.00;;;;;;;13.26;87.49;100077.59;95268;1180;81968;-58
2021/08/30 04:51:34;;;;;;;14.10;12.80;;;;;;;13.45;87.69;100075.49;95335;1180;98426;-57
2021/08/30 04:53:41;;;;;;;12.40;11.20;;;;;;;13.63;87.50;100069.94;95335;1180;88104;-59
2021/08/30 04:55:49;;;;;;;13.50;11.10;;;;;;;13.74;87.34;100072.14;95291;1180;92295;-59
2021/08/30 04:57:58;;;;;;;16.00;11.90;;;;;;;13.86;87.43;100072.19;95290;1180;77995;-59
2021/08/30 05:00:09;;;;;;;17.20;14.10;;;;;;;13.97;87.39;100076.21;95340;1180;81745;-64
2021/08/30 05:02:16;;;;;;;15.90;12.80;;;;;;;14.07;87.18;100076.02;95415;1180;95856;-68
2021/08/30 05:04:24;;;;;;;15.00;12.50;;;;;;;14.19;87.12;100077.83;95312;1180;86875;-64
2021/08/30 05:06:32;;;;;;;21.40;12.30;;;;;;;14.35;87.03;100077.85;95239;1180;93282;-65
2021/08/30 05:08:40;;;;;;;17.90;12.00;;;;;;;14.43;86.90;100078.02;95320;1180;79832;-62
2021/08/30 05:10:47;;;;;;;17.10;12.90;;;;;;;14.47;86.81;100077.75;95271;1180;80428;-60
2021/08/30 05:12:55;;;;;;;18.60;13.90;;;;;;;14.43;86.76;100077.52;95242;1180;98720;-61
2021/08/30 05:15:03;;;;;;;15.40;13.80;;;;;;;14.54;86.59;100079.90;95297;1180;87179;-63
2021/08/30 05:17:10;;;;;;;14.40;12.70;;;;;;;14.59;86.51;100080.27;95318;1181;92945;-64
2021/08/30 05:19:18;;;;;;;17.90;12.80;;;;;;;14.62;86.48;100080.38;95284;1180;80196;-63
2021/08/30 05:21:26;;;;;;;16.80;13.40;;;;;;;14.68;86.52;100080.70;95252;1180;80507;-65
2021/08/30 05:23:34;;;;;;;17.60;13.30;;;;;;;14.71;86.41;100074.84;95288;1180;97876;-64
2021/08/30 05:25:42;;;;;;;19.20;13.60;;;;;;;14.77;86.51;100074.16;95291;1180;87074;-59
2021/08/30 05:27:51;;;;;;;15.20;13.80;;;;;;;14.88;86.50;100072.22;95265;1180;94448;-60
2021/08/30 05:29:59;;;;;;;14.60;13.10;;;;;;;14.92;86.32;100076.44;95265;1180;80391;-66
2021/08/30 05:32:11;;;;;;;13.40;12.20;;;;;;;15.03;86.56;100074.89;95270;1180;80733;-63
2021/08/30 05:34:18;;;;;;;13.90;12.50;;;;;;;15.20;86.64;100070.05;95297;1180;98309;-59
2021/08/30 05:36:26;;;;;;;13.60;12.20;;;;;;;15.29;86.47;100068.77;95289;1180;86568;-62
2021/08/30 05:38:37;;;;;;;13.60;12.20;;;;;;;15.38;86.47;100068.88;95287;1180;94778;-59
2021/08/30 05:40:44;;;;;;;14.10;12.80;;;;;;;15.46;86.48;100067.23;95290;1180;80146;-58
2021/08/30 05:42:52;;;;;;;15.80;12.80;;;;;;;15.57;86.23;100067.39;95288;1180;81476;-59
2021/08/30 05:44:59;;;;;;;15.00;13.60;;;;;;;15.72;85.99;100066.98;95338;1180;97458;-59
2021/08/30 05:47:07;;;;;;;16.20;12.90;;;;;;;15.81;85.92;100069.63;95333;1180;87697;-61
2021/08/30 05:49:18;;;;;;;14.70;12.90;;;;;;;15.84;85.89;100070.52;95285;1180;95205;-63
2021/08/30 05:51:26;;;;;;;14.50;13.10;;;;;;;15.83;85.85;100067.19;95243;1180;80367;-64
2021/08/30 05:53:34;;;;;;;13.60;12.20;;;;;;;15.84;85.59;100068.41;95280;1180;81131;-66
2021/08/30 05:55:41;;;;;;;14.20;12.70;;;;;;;15.84;85.47;100067.26;95364;1180;97187;-60
2021/08/30 05:57:49;;;;;;;15.70;13.40;;;;;;;15.87;85.33;100067.23;95380;1180;88376;-60
2021/08/30 05:59:56;;;;;;;13.60;12.30;;;;;;;15.92;85.18;100068.08;95303;1180;94326;-62
2021/08/30 06:02:07;;;;;;;14.00;12.60;;;;;;;15.89;85.10;100068.76;95285;1180;80196;-63
2021/08/30 06:04:15;;;;;;;13.20;11.90;;;;;;;15.88;85.04;100069.22;95315;1180;82141;-63
2021/08/30 06:06:25;;;;;;;16.70;15.10;;;;;;;15.90;84.96;100071.29;95254;1180;98149;-64
2021/08/30 06:08:33;;;;;;;20.50;18.40;;;;;;;15.85;84.82;100068.52;95287;1180;86987;-63
2021/08/30 06:10:41;;;;;;;19.50;15.60;;;;;;;15.83;84.79;100065.86;95253;1180;94546;-58
2021/08/30 06:12:52;;;;;;;16.70;13.90;;;;;;;15.76;84.91;100061.91;95228;1180;80501;-62
2021/08/30 06:14:59;;;;;;;13.70;12.00;;;;;;;15.70;85.00;100066.02;95219;1180;81465;-66
2021/08/30 06:17:10;;;;;;;16.80;13.70;;;;;;;15.70;84.94;100064.37;95314;1180;98040;-65
2021/08/30 06:19:18;;;;;;;15.90;14.30;;;;;;;15.66;84.95;100065.73;95314;1180;88661;-61
2021/08/30 06:21:26;;;;;;;15.80;14.20;;;;;;;15.68;84.98;100065.23;95296;1180;94258;-61
2021/08/30 06:23:34;;;;;;;16.90;14.10;;;;;;;15.63;85.14;100067.23;95356;1180;80868;-60
2021/08/30 06:25:41;;;;;;;15.10;13.50;;;;;;;15.63;84.95;100066.73;95229;1180;82017;-61
2021/08/30 06:27:49;;;;;;;15.80;14.00;;;;;;;15.58;84.86;100061.05;95235;1180;98221;-61
2021/08/30 06:29:56;;;;;;;15.10;13.50;;;;;;;15.60;84.85;100061.15;95222;1180;88409;-61
2021/08/30 06:32:05;;;;;;;15.90;14.40;;;;;;;15.62;84.73;100060.89;95258;1180;94538;-60
2021/08/30 06:34:17;;;;;;;17.20;15.60;;;;;;;15.64;84.80;100055.52;95277;1180;79540;-59
2021/08/30 06:36:25;;;;;;;17.40;14.90;;;;;;;15.62;84.76;100056.31;95321;1180;81250;-60
2021/08/30 06:38:33;;;;;;;16.60;15.10;;;;;;;15.66;84.71;100053.84;95338;1180;96789;-64
2021/08/30 06:40:41;;;;;;;17.30;15.50;;;;;;;15.69;84.76;100056.92;95361;1180;88109;-69
2021/08/30 06:42:48;;;;;;;16.90;14.90;;;;;;;15.69;84.84;100053.23;95310;1180;93352;-68
2021/08/30 06:44:56;;;;;;;15.70;14.10;;;;;;;15.68;84.87;100051.08;95315;1180;78168;-62
2021/08/30 06:47:04;;;;;;;17.20;15.40;;;;;;;15.69;84.92;100045.56;95285;1180;81144;-63
2021/08/30 06:49:14;;;;;;;16.20;14.60;;;;;;;15.70;84.99;100043.67;95371;1180;98841;-65
2021/08/30 06:51:22;;;;;;;16.40;14.80;;;;;;;15.71;85.00;100046.16;95351;1179;87491;-61
2021/08/30 06:53:29;;;;;;;15.70;14.20;;;;;;;15.73;84.94;100047.02;95296;1180;93075;-60
2021/08/30 06:55:37;;;;;;;16.00;14.40;;;;;;;15.81;84.84;100048.16;95312;1180;81190;-67
2021/08/30 06:57:45;;;;;;;16.20;14.30;;;;;;;15.86;84.77;100049.44;95253;1180;80710;-66
2021/08/30 06:59:52;;;;;;;15.80;14.30;;;;;;;15.91;84.77;100047.13;95264;1180;99317;-60
2021/08/30 07:02:00;;;;;;;17.30;15.60;;;;;;;16.00;84.85;100046.26;95315;1180;87562;-60
2021/08/30 07:04:10;;;;;;;16.70;15.10;;;;;;;16.10;84.80;100039.88;95296;1180;94002;-62
2021/08/30 07:06:18;;;;;;;17.00;15.50;;;;;;;16.17;84.72;100039.34;95277;1180;81117;-60
2021/08/30 07:08:25;;;;;;;16.70;15.10;;;;;;;16.26;84.42;100042.26;95309;1180;82777;-60
2021/08/30 07:10:36;;;;;;;15.50;14.20;;;;;;;16.32;84.27;100037.71;95290;1180;98543;-61
2021/08/30 07:12:44;;;;;;;16.70;15.10;;;;;;;16.39;84.28;100038.89;95365;1180;86986;-63
2021/08/30 07:14:51;;;;;;;17.20;15.60;;;;;;;16.47;84.28;100042.11;95321;1179;93356;-61
2021/08/30 07:16:59;;;;;;;17.40;15.70;;;;;;;16.59;84.15;100042.70;95309;1180;79013;-60
2021/08/30 07:19:06;;;;;;;17.80;15.90;;;;;;;16.66;83.96;100043.11;95265;1180;82162;-67
2021/08/30 07:21:14;;;;;;;17.50;15.90;;;;;;;16.63;83.82;100044.27;95283;1180;98901;-66
2021/08/30 07:23:22;;;;;;;17.30;15.50;;;;;;;16.63;83.67;100044.05;95292;1180;88311;-67
2021/08/30 07:25:30;;;;;;;16.90;15.50;;;;;;;16.58;83.69;100041.32;95282;1180;92754;-65
2021/08/30 07:27:37;;;;;;;18.10;16.30;;;;;;;16.53;83.63;100046.89;95285;1180;79970;-68
2021/08/30 07:29:45;;;;;;;18.00;16.10;;;;;;;16.46;83.58;100045.95;95373;1180;82032;-60
2021/08/30 07:31:52;;;;;;;19.20;17.40;;;;;;;16.40;83.54;100050.45;95246;1180;98445;-59
2021/08/30 07:34:00;;;;;;;18.30;16.50;;;;;;;16.41;83.44;100049.27;95272;1180;87934;-66
2021/08/30 07:36:08;;;;;;;17.40;15.80;;;;;;;16.36;83.29;100051.99;95258;1180;94585;-67
2021/08/30 07:38:16;;;;;;;17.00;15.40;;;;;;;16.32;83.19;100056.52;95294;1180;79681;-67
2021/08/30 07:40:23;;;;;;;18.20;16.40;;;;;;;16.20;83.21;100057.67;95297;1180;80851;-59
2021/08/30 07:42:31;;;;;;;18.50;16.50;;;;;;;16.21;83.18;100059.84;95257;1180;99077;-61
2021/08/30 07:44:38;;;;;;;18.30;16.40;;;;;;;16.16;83.21;100057.19;95201;1180;87527;-67
2021/08/30 07:46:49;;;;;;;17.80;16.00;;;;;;;16.14;83.22;100055.95;95280;1180;94626;-67
2021/08/30 07:48:57;;;;;;;17.50;15.80;;;;;;;16.14;83.21;100051.30;95201;1180;80057;-68
2021/08/30 07:51:08;;;;;;;17.80;16.00;;;;;;;16.17;83.28;100044.21;95298;1180;82416;-67
2021/08/30 07:53:15;;;;;;;19.40;16.50;;;;;;;16.20;83.49;100040.45;95355;1180;98625;-72
2021/08/30 07:55:26;;;;;;;17.90;16.20;;;;;;;16.22;83.68;100041.98;95328;1180;87443;-69
2021/08/30 07:57:34;;;;;;;17.10;15.40;;;;;;;16.29;83.80;100039.64;95318;1179;94408;-69
2021/08/30 07:59:42;;;;;;;17.00;15.30;;;;;;;16.36;83.90;100038.95;95203;1180;80302;-59
2021/08/30 08:01:49;;;;;;;16.80;15.10;;;;;;;16.46;83.95;100045.58;95280;1180;80335;-61
2021/08/30 08:03:57;;;;;;;16.60;14.90;;;;;;;16.46;83.99;100047.54;95288;1180;97581;-66
2021/08/30 08:06:05;;;;;;;17.20;15.50;;;;;;;16.47;84.01;100046.59;95281;1180;86686;-69
2021/08/30 08:08:12;;;;;;;17.40;15.60;;;;;;;16.49;83.93;100044.60;95305;1180;94583;-66
2021/08/30 08:10:20;;;;;;;16.80;15.00;;;;;;;16.44;83.99;100046.73;95260;1180;80126;-60
2021/08/30 08:12:28;;;;;;;15.90;14.30;;;;;;;16.46;83.83;100049.77;95323;1180;81187;-59
2021/08/30 08:14:36;;;;;;;16.40;14.80;;;;;;;16.41;83.74;100046.83;95314;1180;98852;-60
2021/08/30 08:16:44;;;;;;;16.00;14.40;;;;;;;16.41;83.75;100047.38;95331;1180;87323;-59
2021/08/30 08:18:53;;;;;;;16.30;14.80;;;;;;;16.33;83.85;100044.55;95279;1180;94460;-66
2021/08/30 08:21:07;;;;;;;15.60;14.20;;;;;;;16.31;83.90;100047.13;95282;1180;80399;-67
2021/08/30 08:23:15;;;;;;;17.40;13.90;;;;;;;16.32;83.98;100043.98;95247;1180;82186;-66
2021/08/30 08:25:22;;;;;;;15.20;13.60;;;;;;;16.38;83.92;100046.38;95258;1180;99467;-59
2021/08/30 08:27:30;;;;;;;15.70;14.20;;;;;;;16.38;83.95;100043.10;95287;1180;87037;-60
2021/08/30 08:29:38;;;;;;;15.80;13.60;;;;;;;16.39;83.80;100044.27;95351;1180;92915;-61
2021/08/30 08:31:46;;;;;;;16.60;15.00;;;;;;;16.35;83.83;100042.35;95363;1180;79663;-63
2021/08/30 08:33:54;;;;;;;16.50;14.80;;;;;;;16.30;84.08;100043.54;95393;1180;81063;-65
2021/08/30 08:36:01;;;;;;;15.30;13.70;;;;;;;16.28;84.07;100044.86;95344;1180;99160;-66
2021/08/30 08:38:09;;;;;;;15.90;13.80;;;;;;;16.32;84.06;100045.69;95328;1180;88267;-63
2021/08/30 08:40:17;;;;;;;15.50;14.10;;;;;;;16.31;84.19;100047.98;95271;1180;94881;-61
2021/08/30 08:42:25;;;;;;;16.30;14.50;;;;;;;16.32;84.32;100048.34;95297;1180;79666;-59
2021/08/30 08:44:33;;;;;;;16.80;15.10;;;;;;;16.38;84.23;100047.30;95288;1180;80291;-64
2021/08/30 08:46:41;;;;;;;15.90;14.30;;;;;;;16.39;84.13;100048.46;95295;1180;97826;-65
2021/08/30 08:48:49;;;;;;;16.40;14.80;;;;;;;16.35;84.15;100046.17;95270;1180;87278;-59
2021/08/30 08:50:57;;;;;;;14.80;13.30;;;;;;;16.31;84.19;100046.83;95262;1180;94243;-60
2021/08/30 08:53:06;;;;;;;15.00;13.50;;;;;;;16.31;84.25;100046.45;95256;1180;79693;-60
2021/08/30 08:55:15;;;;;;;13.80;12.40;;;;;;;16.32;84.29;100046.10;95285;1180;82104;-67
2021/08/30 08:57:23;;;;;;;15.50;13.20;;;;;;;16.39;84.21;100047.03;95286;1180;97641;-61
2021/08/30 08:59:31;;;;;;;14.50;13.10;;;;;;;16.48;84.03;100045.08;95311;1180;87543;-62
2021/08/30 09:01:41;;;;;;;15.70;14.20;;;;;;;16.54;83.90;100043.78;95292;1180;92835;-61
2021/08/30 09:03:51;;;;;;;15.60;14.10;;;;;;;16.52;83.88;100042.91;95264;1180;81771;-70
2021/08/30 09:06:05;;;;;;;15.10;13.50;;;;;;;16.59;83.73;100041.10;95250;1180;81575;-68
2021/08/30 09:08:31;;;;;;;15.40;14.00;;;;;;;16.58;83.81;100039.73;95342;1179;98692;-66
2021/08/30 09:10:45;;;;;;;13.90;12.50;;;;;;;16.58;83.87;100042.00;95325;1180;86659;-59
2021/08/30 09:13:03;;;;;;;15.10;13.70;;;;;;;16.59;84.06;100040.71;95346;1180;94243;-59
2021/08/30 09:15:20;;;;;;;15.50;13.70;;;;;;;16.73;83.92;100036.09;95287;1180;78700;-64
2021/08/30 09:17:32;;;;;;;15.90;14.30;;;;;;;16.71;83.97;100032.82;95341;1180;80734;-64
2021/08/30 09:19:44;;;;;;;15.60;14.10;;;;;;;16.81;83.90;100029.86;95251;1180;98849;-58
2021/08/30 09:21:53;;;;;;;15.80;14.30;;;;;;;16.84;83.81;100026.58;95302;1180;87326;-58
2021/08/30 09:24:15;;;;;;;14.30;13.00;;;;;;;16.84;83.78;100021.95;95283;1180;93562;-65
2021/08/30 09:26:25;;;;;;;15.00;13.50;;;;;;;16.85;83.90;100021.09;95277;1180;80849;-66
2021/08/30 09:28:37;;;;;;;16.00;14.40;;;;;;;16.93;83.78;100019.90;95306;1180;80844;-66
2021/08/30 09:30:57;;;;;;;17.00;15.40;;;;;;;17.07;83.77;100018.13;95282;1180;99042;-65
2021/08/30 09:33:05;;;;;;;16.50;14.80;;;;;;;17.23;83.76;100020.04;95326;1180;88164;-67
2021/08/30 09:35:14;;;;;;;15.60;14.10;;;;;;;17.32;83.70;100014.81;95300;1180;93966;-60
2021/08/30 09:37:25;;;;;;;15.20;13.90;;;;;;;17.39;83.56;100012.84;95310;1180;78910;-58
2021/08/30 09:39:33;;;;;;;15.70;14.20;;;;;;;17.53;83.51;100006.92;95305;1180;80361;-60
2021/08/30 09:41:46;;;;;;;13.60;12.30;;;;;;;17.60;83.48;100008.48;95309;1180;98708;-58
2021/08/30 09:44:04;;;;;;;16.80;15.20;;;;;;;17.56;83.03;100010.30;95303;1180;86866;-65
2021/08/30 09:46:12;;;;;;;17.00;15.60;;;;;;;17.48;82.93;100008.38;95322;1180;94575;-67
2021/08/30 09:48:30;;;;;;;16.10;14.50;;;;;;;17.53;82.92;100010.24;95313;1180;81160;-66
2021/08/30 09:50:44;;;;;;;17.90;14.70;;;;;;;17.50;82.93;100002.57;95319;1180;80771;-67
2021/08/30 09:52:52;;;;;;;16.00;14.60;;;;;;;17.49;82.79;100006.86;95312;1180;98650;-67